Weather observations for the past three days for
Augusta, Bush Field
Metric (Imperial)
Date Time (edt) Wind (kph) Vis. (km) Weather Sky Cond. Temperature (ºC) Relative Humidity Wind Chill (°C) Heat Index (°C) Pressure Precipitation (cm)
Air Dwpt 6 hour altimeter (cm) sea level (mb) 1 hr 3 hr 6 hr
Max. Min.
03 18:53 S 13 16.09 Fair CLR 33.3 21.7 51% 37 76.07 1014.1
03 17:53 SE 9 16.09 Mostly Cloudy SCT065 BKN080 33.9 21.7 49% 38 76.07 1013.9
03 16:53 E 17 16.09 Fair CLR 36.7 20.6 39% 40 76.07 1014.0
03 15:53 Vrbl 9 16.09 A Few Clouds FEW065 36.1 20 39% 39 76.12 1014.7
03 14:53 Vrbl 11 16.09 Partly Cloudy SCT060 36.1 21.1 42% 40 76.15 1015.1
03 13:53 S 11 16.09 A Few Clouds FEW065 35 21.7 35 23.9 46% 39 76.2 1015.8
03 12:53 Calm 16.09 A Few Clouds FEW060 33.9 21.1 47% 37 76.28 1016.6
03 11:53 Calm 16.09 A Few Clouds FEW060 33.3 20.6 47% 36 76.33 1017.2
03 10:53 E 6 16.09 Partly Cloudy SCT055 32.2 18.9 45% 34 76.33 1017.4
03 09:53 Calm 16.09 Partly Cloudy SCT055 28.3 22.2 70% 31 76.33 1017.3
03 08:53 Calm 16.09 A Few Clouds FEW060 26.1 23.3 85% 28 76.35 1017.8
03 07:53 Calm 9.66 Fog/Mist BKN060 BKN070 23.9 22.8 24.4 22.2 94% 23 76.35 1017.7
03 06:53 Calm 16.09 A Few Clouds FEW060 22.8 21.7 94% 76.3 1017.2
03 05:53 Calm 16.09 Fair CLR 22.8 22.2 96% 76.25 1016.4
03 04:53 Calm 16.09 Fair CLR 22.8 22.2 96% 76.25 1016.3
03 03:53 E 6 14.48 Fair CLR 23.3 22.8 97% 76.23 1015.9
03 02:53 Calm 16.09 Fair CLR 24.4 22.8 91% 24 76.2 1015.8
03 01:53 Calm 16.09 Fair CLR 23.9 23.3 30.6 23.9 96% 23 76.25 1016.4
02 23:53 Calm 16.09 Fair CLR 26.7 22.8 79% 29 76.28 1016.7
02 22:53 SE 9 16.09 Fair CLR 26.7 23.9 85% 29 76.28 1016.7
02 21:53 S 7 16.09 Fair CLR 27.2 23.9 82% 30 76.25 1016.4
02 20:53 SE 7 16.09 Fair CLR 27.8 24.4 82% 32 76.2 1015.7
02 19:53 S 6 16.09 Fair CLR 30.6 23.3 36.7 30.6 65% 35 76.17 1015.2
02 18:53 SE 7 16.09 Fair CLR 34.4 21.1 46% 38 76.15 1014.9
02 17:53 SW 6 16.09 Fair CLR 35.6 20.6 41% 39 76.17 1015.2
02 16:53 Vrbl 7 16.09 Fair CLR 35.6 21.1 43% 39 76.17 1015.4
02 15:53 Vrbl 7 16.09 A Few Clouds FEW060 35.6 21.1 43% 39 76.23 1016.0
02 14:53 Calm 16.09 A Few Clouds FEW100 35.6 20.6 41% 39 76.25 1016.5
02 13:53 Vrbl 7 16.09 Fair CLR 35.6 21.1 35.6 23.3 43% 39 76.33 1017.2
02 12:53 N 7 16.09 Fair CLR 33.9 20.6 46% 37 76.38 1017.9
02 11:53 E 7 16.09 Fair CLR 32.2 22.8 58% 37 76.4 1018.3
02 10:53 Calm 16.09 Fair CLR 31.7 23.3 61% 37 76.4 1018.5
02 09:53 Calm 16.09 Fair CLR 28.9 23.9 74% 33 76.4 1018.5
02 08:53 Calm 14.48 Fair CLR 25 23.9 94% 26 76.43 1018.7
02 07:53 Calm 9.66 Fog/Mist CLR 23.3 22.8 23.9 22.2 97% 76.4 1018.5
02 06:53 Calm 14.48 Fair CLR 22.2 22.2 100% 76.38 1018.1
02 05:53 Calm 16.09 Fair CLR 22.8 22.2 96% 76.35 1017.7
02 04:53 Calm 16.09 Fair CLR 23.3 22.2 94% 76.33 1017.4
02 03:53 Calm 12.87 Fair CLR 23.3 22.8 97% 76.3 1017.1
02 02:53 Calm 16.09 Fair CLR 23.9 23.3 96% 23 76.3 1017.2
02 01:53 SE 6 16.09 Fair CLR 23.3 22.8 28.3 23.3 97% 76.33 1017.4
02 00:53 S 6 16.09 Fair CLR 25 22.8 88% 26 76.33 1017.3
01 23:53 Calm 16.09 Fair CLR 24.4 23.9 97% 24 76.33 1017.3
01 22:53 Calm 16.09 Fair CLR 25 23.9 94% 26 76.3 1017.1
01 21:53 Calm 16.09 Partly Cloudy SCT065 25.6 24.4 93% 27 76.3 1016.9
01 20:53 Calm 16.09 Fair CLR 26.7 24.4 87% 30 76.23 1016.1
01 19:53 Calm 16.09 Fair CLR 28.3 24.4 35.6 28.3 79% 33 76.23 1015.8
01 18:53 S 6 16.09 Fair CLR 31.7 22.2 57% 36 76.23 1015.9
01 17:53 N 26 G 44 16.09 Partly Cloudy FEW060 SCT100 34.4 21.1 46% 38 76.2 1015.5
01 15:53 S 9 16.09 Mostly Cloudy FEW055 SCT075 BKN090 30.6 24.4 70% 36 76.25 1016.4
01 14:53 Calm 16.09 Partly Cloudy SCT085 33.9 20.6 46% 37 76.3 1017.0
01 13:53 Vrbl 9 16.09 A Few Clouds FEW090 33.9 21.7 34.4 22.8 49% 38 76.35 1017.7
01 12:53 NE 9 16.09 Fair CLR 33.3 21.7 51% 37 76.4 1018.3
01 11:53 NE 13 16.09 Fair CLR 32.8 22.8 56% 38 76.48 1019.2
01 10:53 Vrbl 6 16.09 Fair CLR 31.1 22.8 61% 35 76.48 1019.4
01 09:53 NW 7 16.09 Fair CLR 28.9 22.8 70% 32 76.45 1019.2
01 08:53 N 6 16.09 Fair CLR 26.1 23.3 85% 28 76.48 1019.3
01 07:53 Calm 16.09 Fair CLR 22.8 22.2 23.9 21.1 96% 76.45 1019.1
01 06:53 Calm 6.44 Fog/Mist CLR 21.7 21.7 100% 76.38 1018.2
01 05:53 Calm 4.83 Fog/Mist CLR 21.7 21.7 100% 76.38 1018.0
01 04:53 Calm 14.48 Fair CLR 22.2 21.7 97% 76.38 1017.9
01 03:53 Calm 16.09 Fair CLR 22.2 21.7 97% 76.35 1017.8
01 02:53 Calm 16.09 Fair CLR 23.3 22.2 94% 76.38 1018.0
01 01:53 Calm 16.09 Fair CLR 23.3 23.3 28.9 22.8 100% 76.4 1018.4
01 00:53 E 6 16.09 Fair CLR 23.9 23.3 96% 23 76.43 1018.7
31 23:53 Calm 16.09 Fair CLR 24.4 23.3 94% 24 76.43 1018.6
31 22:53 Calm 16.09 Fair CLR 25 22.8 88% 26 76.38 1018.2
31 21:53 Calm 16.09 Fair CLR 25 23.3 90% 26 76.38 1017.9
31 20:53 Calm 16.09 Fair CLR 27.2 22.8 77% 30 76.3 1017.1
31 19:53 SE 9 16.09 A Few Clouds FEW060 28.9 22.8 35 28.9 70% 32 76.28 1016.6
Date Time (edt) Wind (kph) Vis. (km) Weather Sky Cond. Air Dwpt Max. Min. Relative Humidity Wind Chill (°C) Heat Index (°C) altimeter (cm) sea level (mb) 1 hr 3 hr 6 hr
6 hour
Temperature (ºC) Pressure Precipitation (cm)